createdAt,value
2018-09-09T00:01:27.305Z,14.37
2018-09-09T00:04:31.039Z,14.42
2018-09-09T00:07:34.840Z,14.38
2018-09-09T00:10:38.483Z,14.33
2018-09-09T00:13:42.245Z,14.35
2018-09-09T00:16:45.846Z,14.33
2018-09-09T00:19:49.504Z,14.37
2018-09-09T00:22:53.363Z,14.34
2018-09-09T00:25:57.010Z,14.40
2018-09-09T00:29:00.644Z,14.34
2018-09-09T00:32:04.350Z,14.32
2018-09-09T00:35:08.038Z,14.29
2018-09-09T00:38:11.771Z,14.24
2018-09-09T00:41:15.509Z,14.21
2018-09-09T00:44:19.245Z,14.19
2018-09-09T00:47:22.879Z,14.22
2018-09-09T00:50:31.863Z,14.21
2018-09-09T00:53:40.709Z,14.20
2018-09-09T00:56:44.300Z,14.14
2018-09-09T00:59:47.899Z,14.00
2018-09-09T01:02:51.501Z,13.97
2018-09-09T01:05:55.273Z,13.96
2018-09-09T01:08:58.844Z,13.88
2018-09-09T01:12:03.860Z,14.09
2018-09-09T01:15:07.800Z,14.01
2018-09-09T01:18:11.594Z,13.95
2018-09-09T01:21:15.169Z,13.85
2018-09-09T01:24:18.814Z,13.78
2018-09-09T01:27:22.430Z,13.75
2018-09-09T01:30:26.124Z,13.56
2018-09-09T01:33:29.736Z,13.38
2018-09-09T01:36:33.377Z,13.26
2018-09-09T01:39:37.427Z,13.19
2018-09-09T01:42:41.256Z,13.27
2018-09-09T01:45:44.855Z,13.27
2018-09-09T01:48:48.655Z,13.25
2018-09-09T01:51:52.275Z,13.20
2018-09-09T01:54:55.951Z,13.18
2018-09-09T01:57:59.580Z,13.19
2018-09-09T02:01:03.142Z,13.22
2018-09-09T02:04:06.884Z,13.19
2018-09-09T02:07:10.489Z,13.19
2018-09-09T02:10:14.180Z,13.25
2018-09-09T02:13:17.941Z,13.24
2018-09-09T02:16:21.579Z,13.32
2018-09-09T02:19:25.323Z,13.36
2018-09-09T02:22:28.935Z,13.40
2018-09-09T02:25:32.550Z,13.36
2018-09-09T02:28:36.301Z,13.37
2018-09-09T02:31:39.966Z,13.44
2018-09-09T02:34:43.556Z,13.43
2018-09-09T02:37:47.116Z,13.35
2018-09-09T02:40:50.713Z,13.39
2018-09-09T02:43:54.510Z,13.38
2018-09-09T02:46:58.356Z,13.52
2018-09-09T02:50:01.967Z,13.50
2018-09-09T02:53:06.090Z,13.40
2018-09-09T02:56:09.732Z,13.33
2018-09-09T02:59:13.370Z,13.24
2018-09-09T03:02:17.166Z,13.26
2018-09-09T03:05:20.807Z,13.20
2018-09-09T03:08:24.619Z,13.09
2018-09-09T03:11:28.231Z,13.05
2018-09-09T03:14:31.911Z,13.00
2018-09-09T03:17:35.630Z,12.92
2018-09-09T03:20:39.211Z,12.95
2018-09-09T03:23:45.555Z,12.87
2018-09-09T03:26:49.191Z,12.79
2018-09-09T03:29:52.885Z,12.74
2018-09-09T03:32:56.482Z,12.76
2018-09-09T03:36:00.048Z,12.74
2018-09-09T03:39:04.957Z,12.78
2018-09-09T03:42:08.711Z,13.07
2018-09-09T03:45:12.332Z,13.02
2018-09-09T03:48:15.912Z,12.95
2018-09-09T03:51:19.614Z,12.91
2018-09-09T03:54:23.332Z,12.86
2018-09-09T03:57:26.918Z,12.82
2018-09-09T04:00:30.512Z,12.84
2018-09-09T04:03:34.250Z,12.79
2018-09-09T04:06:37.855Z,12.80
2018-09-09T04:09:41.493Z,12.79
2018-09-09T04:12:45.048Z,12.78
2018-09-09T04:15:48.809Z,12.77
2018-09-09T04:18:52.537Z,12.80
2018-09-09T04:21:56.146Z,12.87
2018-09-09T04:24:59.800Z,13.01
2018-09-09T04:28:03.363Z,13.06
2018-09-09T04:31:06.953Z,13.12
2018-09-09T04:34:10.826Z,13.15
2018-09-09T04:37:14.496Z,13.21
2018-09-09T04:40:18.207Z,13.25
2018-09-09T04:43:21.852Z,13.26
2018-09-09T04:46:25.454Z,13.35
2018-09-09T04:49:29.011Z,13.39
2018-09-09T04:52:32.651Z,13.41
2018-09-09T04:55:36.262Z,13.50
2018-09-09T04:58:39.797Z,13.51
2018-09-09T05:01:43.407Z,13.49
2018-09-09T05:04:47.078Z,13.51
2018-09-09T05:07:50.852Z,13.58
2018-09-09T05:10:54.442Z,13.65
2018-09-09T05:13:58.078Z,13.66
2018-09-09T05:17:01.762Z,13.71
2018-09-09T05:20:05.615Z,13.59
2018-09-09T05:23:09.229Z,13.49
2018-09-09T05:26:12.923Z,13.45
2018-09-09T05:29:16.538Z,13.44
2018-09-09T05:32:20.144Z,13.43
2018-09-09T05:35:23.906Z,13.46
2018-09-09T05:38:27.701Z,13.59
2018-09-09T05:41:31.342Z,13.77
2018-09-09T05:44:35.016Z,14.59
2018-09-09T05:47:38.627Z,14.96
2018-09-09T05:50:42.498Z,15.70
2018-09-09T05:53:46.375Z,16.01
2018-09-09T05:56:50.002Z,16.32
2018-09-09T05:59:53.629Z,16.66
2018-09-09T06:02:57.269Z,16.58
2018-09-09T06:06:00.849Z,16.43
2018-09-09T06:09:06.044Z,16.31
2018-09-09T06:12:09.718Z,15.97
2018-09-09T06:15:13.423Z,15.98
2018-09-09T06:18:17.134Z,15.86
2018-09-09T06:21:20.899Z,15.84
2018-09-09T06:24:24.583Z,15.86
2018-09-09T06:27:28.266Z,15.86
2018-09-09T06:30:31.959Z,15.82
2018-09-09T06:33:35.645Z,15.82
2018-09-09T06:36:39.307Z,15.77
2018-09-09T06:39:42.939Z,15.96
2018-09-09T06:42:46.674Z,16.10
2018-09-09T06:45:50.334Z,16.41
2018-09-09T06:48:54.013Z,16.55
2018-09-09T06:51:57.658Z,16.89
2018-09-09T06:55:01.364Z,16.90
2018-09-09T06:58:05.070Z,16.95
2018-09-09T07:01:08.787Z,17.01
2018-09-09T07:04:12.551Z,17.07
2018-09-09T07:07:16.299Z,17.35
2018-09-09T07:10:19.909Z,17.47
2018-09-09T07:13:23.630Z,17.75
2018-09-09T07:16:27.310Z,18.21
2018-09-09T07:19:30.984Z,18.30
2018-09-09T07:22:34.643Z,18.22
2018-09-09T07:25:38.428Z,18.34
2018-09-09T07:28:42.143Z,18.30
2018-09-09T07:31:45.789Z,18.12
2018-09-09T07:34:49.521Z,18.39
2018-09-09T07:37:54.052Z,18.74
2018-09-09T07:40:57.824Z,18.21
2018-09-09T07:44:01.486Z,18.51
2018-09-09T07:47:05.305Z,18.15
2018-09-09T07:50:09.066Z,18.49
2018-09-09T07:53:12.852Z,19.06
2018-09-09T07:56:16.525Z,18.96
2018-09-09T07:59:20.740Z,18.97
2018-09-09T08:02:24.590Z,18.64
2018-09-09T08:05:28.285Z,18.53
2018-09-09T08:08:32.026Z,18.12
2018-09-09T08:11:38.542Z,18.62
2018-09-09T08:14:42.236Z,18.91
2018-09-09T08:17:46.752Z,19.25
2018-09-09T08:20:52.157Z,19.43
2018-09-09T08:23:56.045Z,19.20
2018-09-09T08:26:59.717Z,19.33
2018-09-09T08:30:03.555Z,19.01
2018-09-09T08:33:07.376Z,19.26
2018-09-09T08:36:11.084Z,19.24
2018-09-09T08:39:14.733Z,18.96
2018-09-09T08:42:18.446Z,19.27
2018-09-09T08:45:22.201Z,19.67
2018-09-09T08:48:25.862Z,19.86
2018-09-09T08:51:29.645Z,19.85
2018-09-09T08:54:33.431Z,19.80
2018-09-09T08:57:37.131Z,19.59
2018-09-09T09:00:40.902Z,19.72
2018-09-09T09:03:44.661Z,19.77
2018-09-09T09:06:48.402Z,19.47
2018-09-09T09:09:52.156Z,19.71
2018-09-09T09:12:55.921Z,19.79
2018-09-09T09:15:59.661Z,19.63
2018-09-09T09:19:03.283Z,19.66
2018-09-09T09:22:07.710Z,19.54
2018-09-09T09:25:11.520Z,19.85
2018-09-09T09:28:15.297Z,19.52
2018-09-09T09:31:19.086Z,19.81
2018-09-09T09:34:22.806Z,19.89
2018-09-09T09:37:27.102Z,20.18
2018-09-09T09:40:30.797Z,20.26
2018-09-09T09:43:34.552Z,19.95
2018-09-09T09:46:38.144Z,20.39
2018-09-09T09:49:41.941Z,20.63
2018-09-09T09:52:45.653Z,20.81
2018-09-09T09:55:49.298Z,21.17
2018-09-09T09:58:53.167Z,21.81
2018-09-09T10:01:57.032Z,21.80
2018-09-09T10:05:00.842Z,21.90
2018-09-09T10:08:05.281Z,22.01
2018-09-09T10:11:09.021Z,22.27
2018-09-09T10:14:12.736Z,21.42
2018-09-09T10:17:16.391Z,21.22
2018-09-09T10:20:20.100Z,21.92
2018-09-09T10:23:23.976Z,21.81
2018-09-09T10:26:28.359Z,22.05
2018-09-09T10:29:34.687Z,22.16
2018-09-09T10:32:38.439Z,22.43
2018-09-09T10:35:42.619Z,21.70
2018-09-09T10:38:46.366Z,21.99
2018-09-09T10:41:50.169Z,21.78
2018-09-09T10:44:54.086Z,22.23
2018-09-09T10:47:58.783Z,21.89
2018-09-09T10:51:02.513Z,22.21
2018-09-09T10:54:06.273Z,22.53
2018-09-09T10:57:10.207Z,22.43
2018-09-09T11:00:14.129Z,22.63
2018-09-09T11:03:18.913Z,22.68
2018-09-09T11:06:22.897Z,22.68
2018-09-09T11:09:28.385Z,23.12
2018-09-09T11:12:32.779Z,22.77
2018-09-09T11:15:37.159Z,22.20
2018-09-09T11:18:41.009Z,22.29
2018-09-09T11:21:45.246Z,22.42
2018-09-09T11:24:49.352Z,21.95
2018-09-09T11:27:53.161Z,22.02
2018-09-09T11:30:56.868Z,21.72
2018-09-09T11:34:01.028Z,21.40
2018-09-09T11:37:04.905Z,21.43
2018-09-09T11:40:08.853Z,21.51
2018-09-09T11:43:12.792Z,21.47
2018-09-09T11:46:16.797Z,21.35
2018-09-09T11:49:20.532Z,21.33
2018-09-09T11:52:24.503Z,21.43
2018-09-09T11:55:28.477Z,21.38
2018-09-09T11:58:32.358Z,21.35
2018-09-09T12:01:36.268Z,21.48
2018-09-09T12:04:40.097Z,21.49
2018-09-09T12:07:44.184Z,21.47
2018-09-09T12:10:47.978Z,21.53
2018-09-09T12:13:51.933Z,21.58
2018-09-09T12:16:55.758Z,21.89
2018-09-09T12:19:59.540Z,22.03
2018-09-09T12:23:03.612Z,22.56
2018-09-09T12:26:07.464Z,23.08
2018-09-09T12:29:11.213Z,22.96
2018-09-09T12:32:15.844Z,22.75
2018-09-09T12:35:19.930Z,22.47
2018-09-09T12:38:23.798Z,22.86
2018-09-09T12:41:31.923Z,23.20
2018-09-09T12:44:44.232Z,23.44
2018-09-09T12:47:53.482Z,23.10
2018-09-09T12:50:57.289Z,22.83
2018-09-09T12:54:01.143Z,22.53
2018-09-09T12:57:05.040Z,22.68
2018-09-09T13:00:09.303Z,22.83
2018-09-09T13:03:13.119Z,23.07
2018-09-09T13:06:18.067Z,22.95
2018-09-09T13:09:21.918Z,23.03
2018-09-09T13:12:29.550Z,22.88
2018-09-09T13:15:33.946Z,22.64
2018-09-09T13:18:37.774Z,22.18
2018-09-09T13:21:41.514Z,22.11
2018-09-09T13:24:45.361Z,22.25
2018-09-09T13:27:49.184Z,22.33
2018-09-09T13:30:52.983Z,22.64
2018-09-09T13:33:56.776Z,22.97
2018-09-09T13:37:00.505Z,23.05
2018-09-09T13:40:05.466Z,22.91
2018-09-09T13:43:09.188Z,22.99
2018-09-09T13:46:13.997Z,23.22
2018-09-09T13:49:17.763Z,23.57
2018-09-09T13:52:21.738Z,23.80
2018-09-09T13:55:25.492Z,23.61
2018-09-09T13:58:29.254Z,23.26
2018-09-09T14:01:33.264Z,23.12
2018-09-09T14:04:37.459Z,22.78
2018-09-09T14:07:41.363Z,22.71
2018-09-09T14:10:45.085Z,22.82
2018-09-09T14:13:48.819Z,22.80
2018-09-09T14:16:52.524Z,22.76
2018-09-09T14:19:56.256Z,22.75
2018-09-09T14:23:00.030Z,22.73
2018-09-09T14:26:03.841Z,22.76
2018-09-09T14:29:07.654Z,22.67
2018-09-09T14:32:11.460Z,22.64
2018-09-09T14:35:15.400Z,22.66
2018-09-09T14:38:19.275Z,22.75
2018-09-09T14:41:22.950Z,22.66
2018-09-09T14:44:26.837Z,22.58
2018-09-09T14:47:30.585Z,22.73
2018-09-09T14:50:34.316Z,22.79
2018-09-09T14:53:38.199Z,22.92
2018-09-09T14:56:41.919Z,22.92
2018-09-09T14:59:45.650Z,22.83
2018-09-09T15:02:49.603Z,23.03
2018-09-09T15:05:53.410Z,23.09
2018-09-09T15:08:57.094Z,23.08
2018-09-09T15:12:00.715Z,22.94
2018-09-09T15:15:04.683Z,22.93
2018-09-09T15:18:08.429Z,22.97
2018-09-09T15:21:12.118Z,22.83
2018-09-09T15:24:15.919Z,22.83
2018-09-09T15:27:19.811Z,22.85
2018-09-09T15:30:23.607Z,22.96
2018-09-09T15:33:27.330Z,23.15
2018-09-09T15:36:30.998Z,23.07
2018-09-09T15:39:34.885Z,22.94
2018-09-09T15:42:38.631Z,22.77
2018-09-09T15:45:42.486Z,22.82
2018-09-09T15:48:46.261Z,23.00
2018-09-09T15:51:50.044Z,22.80
2018-09-09T15:54:53.815Z,22.83
2018-09-09T15:57:57.561Z,22.98
2018-09-09T16:01:01.205Z,22.93
2018-09-09T16:04:04.929Z,22.99
2018-09-09T16:07:08.723Z,23.14
2018-09-09T16:10:12.316Z,23.16
2018-09-09T16:13:16.073Z,23.22
2018-09-09T16:16:19.778Z,22.99
2018-09-09T16:19:23.666Z,22.79
2018-09-09T16:22:27.620Z,22.64
2018-09-09T16:25:31.290Z,22.32
2018-09-09T16:28:34.975Z,22.11
2018-09-09T16:31:38.760Z,21.89
2018-09-09T16:34:42.421Z,21.84
2018-09-09T16:37:46.348Z,21.87
2018-09-09T16:40:50.081Z,21.78
2018-09-09T16:43:53.862Z,21.78
2018-09-09T16:46:57.672Z,21.62
2018-09-09T16:50:01.477Z,21.51
2018-09-09T16:53:05.232Z,21.67
2018-09-09T16:56:08.984Z,21.61
2018-09-09T16:59:12.765Z,21.43
2018-09-09T17:02:16.430Z,21.40
2018-09-09T17:05:20.081Z,21.42
2018-09-09T17:08:23.838Z,21.45
2018-09-09T17:11:27.508Z,21.36
2018-09-09T17:14:31.511Z,21.33
2018-09-09T17:17:35.225Z,21.37
2018-09-09T17:20:38.998Z,21.19
2018-09-09T17:23:42.861Z,20.87
2018-09-09T17:26:46.666Z,20.56
2018-09-09T17:29:50.422Z,20.34
2018-09-09T17:32:54.193Z,20.22
2018-09-09T17:35:57.897Z,19.97
2018-09-09T17:39:01.731Z,19.66
2018-09-09T17:42:05.477Z,19.51
2018-09-09T17:45:09.928Z,19.29
2018-09-09T17:48:13.654Z,19.16
2018-09-09T17:51:25.386Z,18.81
2018-09-09T17:54:29.745Z,18.58
2018-09-09T17:57:33.497Z,18.35
2018-09-09T18:00:37.196Z,18.18
2018-09-09T18:03:40.773Z,18.04
2018-09-09T18:06:44.703Z,17.94
2018-09-09T18:09:48.496Z,17.80
2018-09-09T18:12:56.842Z,17.70
2018-09-09T18:16:00.660Z,17.67
2018-09-09T18:19:04.438Z,17.65
2018-09-09T18:22:08.212Z,17.68
2018-09-09T18:25:11.880Z,17.63
2018-09-09T18:28:15.574Z,17.59
2018-09-09T18:31:19.332Z,17.46
2018-09-09T18:34:23.106Z,17.46
2018-09-09T18:37:26.779Z,17.50
2018-09-09T18:40:39.207Z,17.40
2018-09-09T18:43:42.849Z,17.55
2018-09-09T18:46:46.567Z,17.43
2018-09-09T18:49:50.238Z,17.36
2018-09-09T18:52:54.026Z,17.45
2018-09-09T18:55:57.793Z,17.35
2018-09-09T18:59:01.524Z,17.34
2018-09-09T19:02:05.388Z,17.29
2018-09-09T19:05:09.226Z,17.24
2018-09-09T19:08:12.904Z,17.18
2018-09-09T19:11:16.678Z,17.09
2018-09-09T19:14:20.320Z,16.94
2018-09-09T19:17:24.082Z,16.78
2018-09-09T19:20:29.022Z,16.69
2018-09-09T19:23:32.801Z,16.70
2018-09-09T19:26:36.552Z,16.62
2018-09-09T19:29:40.309Z,16.61
2018-09-09T19:32:44.033Z,16.57
2018-09-09T19:35:47.771Z,16.52
2018-09-09T19:38:51.789Z,16.46
2018-09-09T19:41:55.729Z,16.46
2018-09-09T19:44:59.522Z,16.49
2018-09-09T19:48:03.208Z,16.44
2018-09-09T19:51:07.057Z,16.42
2018-09-09T19:54:10.739Z,16.58
2018-09-09T19:57:14.578Z,16.56
2018-09-09T20:00:18.373Z,16.45
2018-09-09T20:03:22.333Z,16.55
2018-09-09T20:06:26.027Z,16.65
2018-09-09T20:09:29.715Z,16.65
2018-09-09T20:12:33.439Z,16.85
2018-09-09T20:15:37.524Z,16.95
2018-09-09T20:18:44.176Z,16.87
2018-09-09T20:21:48.074Z,16.77
2018-09-09T20:24:51.771Z,16.86
2018-09-09T20:27:55.420Z,16.74
2018-09-09T20:30:59.189Z,16.79
2018-09-09T20:34:02.906Z,16.90
2018-09-09T20:37:06.877Z,16.84
2018-09-09T20:40:10.619Z,16.80
2018-09-09T20:43:14.475Z,16.94
2018-09-09T20:46:18.238Z,16.86
2018-09-09T20:49:21.969Z,16.72
2018-09-09T20:52:25.815Z,16.75
2018-09-09T20:55:29.733Z,16.66
2018-09-09T20:58:33.402Z,16.58
2018-09-09T21:01:38.069Z,16.59
2018-09-09T21:04:41.818Z,16.61
2018-09-09T21:07:45.748Z,16.39
2018-09-09T21:10:49.980Z,16.30
2018-09-09T21:13:54.146Z,16.14
2018-09-09T21:16:57.974Z,16.14
2018-09-09T21:20:01.699Z,16.27
2018-09-09T21:23:05.426Z,16.17
2018-09-09T21:26:09.096Z,16.28
2018-09-09T21:29:12.734Z,16.20
2018-09-09T21:32:16.433Z,16.06
2018-09-09T21:35:20.270Z,15.83
2018-09-09T21:38:23.979Z,15.88
2018-09-09T21:41:27.732Z,15.70
2018-09-09T21:44:31.394Z,15.67
2018-09-09T21:47:35.085Z,15.63
2018-09-09T21:50:38.802Z,15.59
2018-09-09T21:53:42.373Z,15.53
2018-09-09T21:56:46.067Z,15.55
2018-09-09T21:59:49.841Z,15.46
2018-09-09T22:02:53.611Z,15.69
2018-09-09T22:05:58.013Z,15.56
2018-09-09T22:09:01.643Z,15.57
2018-09-09T22:12:05.483Z,15.51
2018-09-09T22:15:09.150Z,15.51
2018-09-09T22:18:12.716Z,15.63
2018-09-09T22:21:16.790Z,15.69
2018-09-09T22:24:21.570Z,15.63
2018-09-09T22:27:25.279Z,15.66
2018-09-09T22:30:29.025Z,15.58
2018-09-09T22:33:33.507Z,15.62
2018-09-09T22:36:37.159Z,15.72
2018-09-09T22:39:40.858Z,15.60
2018-09-09T22:42:44.456Z,15.62
2018-09-09T22:45:50.218Z,15.70
2018-09-09T22:48:53.891Z,15.67
2018-09-09T22:51:57.514Z,15.62
2018-09-09T22:55:01.195Z,15.59
2018-09-09T22:58:05.185Z,15.59
2018-09-09T23:01:08.889Z,15.90
2018-09-09T23:04:12.644Z,16.01
2018-09-09T23:07:16.353Z,16.11
2018-09-09T23:10:20.011Z,15.96
2018-09-09T23:13:23.710Z,16.06
2018-09-09T23:16:27.365Z,15.99
2018-09-09T23:19:31.029Z,15.77
2018-09-09T23:22:34.674Z,15.73
2018-09-09T23:25:38.260Z,15.59
2018-09-09T23:28:41.964Z,15.54
2018-09-09T23:31:45.753Z,15.70
2018-09-09T23:34:49.435Z,16.01
2018-09-09T23:37:53.089Z,15.87
2018-09-09T23:40:56.917Z,15.80
2018-09-09T23:44:00.551Z,16.02
2018-09-09T23:47:04.136Z,16.26
2018-09-09T23:50:08.120Z,16.29
2018-09-09T23:53:11.842Z,16.14
2018-09-09T23:56:15.494Z,15.76
2018-09-09T23:59:19.145Z,15.76
